Time;durP1;ratioP1;P1;durP2;ratioP2;P2;SDS_P1;SDS_P2;PMS_P1;PMS_P2;Temp;Humidity;BMP_temperature;BMP_pressure;BME280_temperature;BME280_humidity;BME280_pressure;Samples;Min_cycle;Max_cycle;Signal;HPM_P1;HPM_P2
2023/01/26 00:01:18;;;;;;;38.40;21.73;;;2.60;99.90;;;;;;5064505;28;20072;-64
2023/01/26 00:03:45;;;;;;;;;;;2.60;99.90;;;;;;5065321;28;20040;-64
2023/01/26 00:06:14;;;;;;;41.55;20.70;;;2.60;99.90;;;;;;5061794;28;19924;-65
2023/01/26 00:08:43;;;;;;;44.40;23.63;;;2.60;99.90;;;;;;5062531;28;20053;-63
2023/01/26 00:11:13;;;;;;;47.47;22.13;;;2.60;99.90;;;;;;5063651;28;20520;-64
2023/01/26 00:13:40;;;;;;;40.88;19.88;;;2.60;99.90;;;;;;5062805;28;20051;-65
2023/01/26 00:16:09;;;;;;;42.58;20.33;;;2.60;99.90;;;;;;5062830;28;20485;-64
2023/01/26 00:18:38;;;;;;;40.67;21.42;;;2.60;99.90;;;;;;5060401;28;20131;-64
2023/01/26 00:21:06;;;;;;;38.75;21.42;;;2.60;99.90;;;;;;5062579;28;20079;-64
2023/01/26 00:23:34;;;;;;;40.88;20.73;;;2.60;99.90;;;;;;5059859;28;20072;-64
2023/01/26 00:26:04;;;;;;;41.28;21.38;;;2.60;99.90;;;;;;5057895;28;20052;-65
2023/01/26 00:28:31;;;;;;;39.28;19.73;;;2.60;99.90;;;;;;5062017;28;20043;-64
2023/01/26 00:31:02;;;;;;;41.15;22.58;;;2.60;99.90;;;;;;5061354;28;20052;-63
2023/01/26 00:33:30;;;;;;;45.88;23.42;;;2.70;99.90;;;;;;5062088;28;20110;-68
2023/01/26 00:35:57;;;;;;;41.65;20.55;;;2.60;99.90;;;;;;5059017;28;20082;-64
2023/01/26 00:38:25;;;;;;;41.03;19.40;;;2.60;99.90;;;;;;5060421;28;20544;-67
2023/01/26 00:40:52;;;;;;;42.80;21.63;;;2.60;99.90;;;;;;5060703;28;20072;-66
2023/01/26 00:43:19;;;;;;;35.42;21.50;;;2.60;99.90;;;;;;5059856;28;20102;-65
2023/01/26 00:45:46;;;;;;;48.40;23.13;;;2.60;99.90;;;;;;5059533;28;20464;-67
2023/01/26 00:48:13;;;;;;;46.58;22.08;;;2.60;99.90;;;;;;5054742;28;20483;-65
2023/01/26 00:50:40;;;;;;;45.95;21.25;;;2.60;99.90;;;;;;5061085;28;20052;-63
2023/01/26 00:53:09;;;;;;;42.95;20.80;;;2.60;99.90;;;;;;5062733;28;20047;-64
2023/01/26 00:55:36;;;;;;;43.28;21.65;;;2.70;99.90;;;;;;5064540;28;20083;-67
2023/01/26 00:58:05;;;;;;;44.38;21.83;;;2.60;99.90;;;;;;5064751;28;20037;-64
2023/01/26 01:00:34;;;;;;;42.53;20.25;;;2.60;99.90;;;;;;5062889;28;20093;-64
2023/01/26 01:03:04;;;;;;;43.08;19.42;;;2.60;99.90;;;;;;5064838;28;20071;-64
2023/01/26 01:05:32;;;;;;;43.42;21.70;;;2.60;99.90;;;;;;5063812;28;20052;-65
2023/01/26 01:07:59;;;;;;;39.20;19.17;;;2.60;99.90;;;;;;5065199;28;20044;-65
2023/01/26 01:10:26;;;;;;;40.08;19.13;;;2.60;99.90;;;;;;5060067;28;20056;-66
2023/01/26 01:12:53;;;;;;;42.15;20.30;;;2.60;99.90;;;;;;5068701;28;20110;-64
2023/01/26 01:15:23;;;;;;;41.53;20.48;;;2.60;99.90;;;;;;5063833;28;20109;-63
2023/01/26 01:17:50;;;;;;;37.90;18.85;;;2.70;99.90;;;;;;5066924;28;20052;-68
2023/01/26 01:20:17;;;;;;;39.60;18.52;;;2.70;99.90;;;;;;5065122;28;20493;-65
2023/01/26 01:22:45;;;;;;;38.45;22.00;;;2.70;99.90;;;;;;5081903;28;20103;-66
2023/01/26 01:25:14;;;;;;;49.40;22.95;;;2.70;99.90;;;;;;5066321;28;20398;-64
2023/01/26 01:27:41;;;;;;;38.63;21.17;;;2.70;99.90;;;;;;5065599;28;20052;-67
2023/01/26 01:30:08;;;;;;;37.83;21.40;;;2.70;99.90;;;;;;5063315;28;20137;-64
2023/01/26 01:32:38;;;;;;;38.75;19.77;;;2.70;99.90;;;;;;5066697;28;20377;-64
2023/01/26 01:35:06;;;;;;;40.25;19.70;;;2.70;99.90;;;;;;5066381;28;20547;-65
2023/01/26 01:37:35;;;;;;;42.03;19.98;;;2.70;99.90;;;;;;5068629;28;20395;-65
2023/01/26 01:40:02;;;;;;;40.40;20.75;;;2.70;99.90;;;;;;5067594;28;20048;-67
2023/01/26 01:42:29;;;;;;;46.95;21.52;;;2.70;99.90;;;;;;5065338;28;20052;-63
2023/01/26 01:45:24;;;;;;;48.75;21.98;;;2.70;99.90;;;;;;5067358;28;20049;-64
2023/01/26 01:48:04;;;;;;;46.80;21.95;;;2.60;99.90;;;;;;5064675;28;20135;-63
2023/01/26 01:50:37;;;;;;;45.53;21.27;;;2.60;99.90;;;;;;5076331;28;20179;-64
2023/01/26 01:53:07;;;;;;;44.30;22.15;;;2.60;99.90;;;;;;5067776;28;20052;-67
2023/01/26 01:55:35;;;;;;;48.70;23.35;;;2.60;99.90;;;;;;5076758;28;20044;-64
2023/01/26 01:58:05;;;;;;;49.55;23.60;;;2.60;99.90;;;;;;5067774;28;20060;-64
2023/01/26 02:00:32;;;;;;;45.05;22.60;;;2.60;99.90;;;;;;5057276;28;20052;-64
2023/01/26 02:03:17;;;;;;;47.70;23.90;;;2.60;99.90;;;;;;5065888;28;20044;-66
2023/01/26 02:06:05;;;;;;;48.20;22.92;;;2.60;99.90;;;;;;5063210;28;20056;-66
2023/01/26 02:08:38;;;;;;;46.50;22.80;;;2.60;99.90;;;;;;5065180;28;20456;-63
2023/01/26 02:11:11;;;;;;;53.20;23.48;;;2.60;99.90;;;;;;5063133;28;20091;-67
2023/01/26 02:13:39;;;;;;;44.33;21.77;;;2.60;99.90;;;;;;5064386;28;20144;-64
2023/01/26 02:16:07;;;;;;;43.67;22.50;;;2.60;99.90;;;;;;5063063;28;20140;-65
2023/01/26 02:18:34;;;;;;;45.10;22.48;;;2.60;99.90;;;;;;5065652;28;20474;-64
2023/01/26 02:21:08;;;;;;;44.78;23.00;;;2.60;99.90;;;;;;5058959;28;20044;-66
2023/01/26 02:23:42;;;;;;;40.55;21.20;;;2.60;99.90;;;;;;5060050;28;20052;-64
2023/01/26 02:26:12;;;;;;;45.05;21.75;;;2.60;99.90;;;;;;5066316;28;20060;-64
2023/01/26 02:28:41;;;;;;;44.53;21.40;;;2.60;99.90;;;;;;5064944;28;20072;-70
2023/01/26 02:31:09;;;;;;;46.50;25.73;;;2.60;99.90;;;;;;5062314;28;20041;-64
2023/01/26 02:33:37;;;;;;;45.40;21.88;;;2.60;99.90;;;;;;5065783;28;20114;-66
2023/01/26 02:36:06;;;;;;;46.85;23.00;;;2.60;99.90;;;;;;5061139;28;20068;-64
2023/01/26 02:38:41;;;;;;;50.28;22.98;;;2.60;99.90;;;;;;5059625;28;20045;-66
2023/01/26 02:42:37;;;;;;;50.92;23.13;;;2.60;99.90;;;;;;5062939;28;20557;-64
2023/01/26 02:44:08;;;;;;;50.60;23.73;;;2.60;99.90;;;;;;5076828;28;20083;-66
2023/01/26 02:46:35;;;;;;;47.22;24.85;;;2.60;99.90;;;;;;5062658;28;20460;-64
2023/01/26 02:51:48;;;;;;;41.85;23.38;;;2.60;99.90;;;;;;5060717;28;20060;-70
2023/01/26 02:57:01;;;;;;;45.75;22.67;;;2.60;99.90;;;;;;5060962;28;20043;-68
2023/01/26 02:59:28;;;;;;;51.88;24.77;;;2.60;99.90;;;;;;5065121;28;20036;-66
2023/01/26 03:01:56;;;;;;;45.60;22.88;;;2.60;99.90;;;;;;5062082;28;20051;-65
2023/01/26 03:04:24;;;;;;;50.70;23.88;;;2.60;99.90;;;;;;5062723;28;20043;-66
2023/01/26 03:06:51;;;;;;;48.55;23.15;;;2.60;99.90;;;;;;5062981;28;20058;-64
2023/01/26 03:09:18;;;;;;;46.08;24.73;;;2.60;99.90;;;;;;5059339;28;20052;-67
2023/01/26 03:11:46;;;;;;;45.15;22.23;;;2.60;99.90;;;;;;5063182;28;20557;-65
2023/01/26 03:14:15;;;;;;;47.88;23.45;;;2.60;99.90;;;;;;5063446;28;20501;-67
2023/01/26 03:16:42;;;;;;;51.53;23.55;;;2.60;99.90;;;;;;5065224;28;20057;-66
2023/01/26 03:27:47;;;;;;;52.40;23.48;;;2.60;99.90;;;;;;5062425;28;20352;-61
2023/01/26 03:30:16;;;;;;;41.90;21.40;;;2.60;99.90;;;;;;5061515;28;20047;-61
2023/01/26 03:32:45;;;;;;;51.83;25.52;;;2.60;99.90;;;;;;5061076;28;20127;-63
2023/01/26 03:35:14;;;;;;;48.13;24.42;;;2.60;99.90;;;;;;5061218;28;20143;-62
2023/01/26 03:37:43;;;;;;;49.35;23.38;;;2.60;99.90;;;;;;5062596;28;20129;-61
2023/01/26 03:56:56;;;;;;;48.85;23.73;;;2.60;99.90;;;;;;5055161;28;20049;-66
2023/01/26 03:59:36;;;;;;;46.28;23.30;;;2.70;99.90;;;;;;5062598;28;20044;-63
2023/01/26 04:10:35;;;;;;;49.85;22.55;;;2.70;99.90;;;;;;5060559;28;20529;-67
2023/01/26 04:21:32;;;;;;;48.00;21.80;;;2.70;99.90;;;;;;5056970;28;20105;-65
2023/01/26 04:24:08;;;;;;;49.75;22.08;;;2.70;99.90;;;;;;5062425;28;20060;-63
2023/01/26 04:26:36;;;;;;;47.13;21.95;;;2.80;99.90;;;;;;5059320;28;20048;-67
2023/01/26 04:29:07;;;;;;;;;;;2.80;99.90;;;;;;5078191;28;20044;-62
2023/01/26 04:31:35;;;;;;;45.72;21.20;;;2.80;99.90;;;;;;5057761;28;20302;-64
2023/01/26 04:34:04;;;;;;;40.63;20.13;;;2.80;99.90;;;;;;5068944;28;20086;-63
2023/01/26 04:36:31;;;;;;;49.10;20.30;;;2.80;99.90;;;;;;5062206;28;20052;-62
2023/01/26 04:38:59;;;;;;;36.05;20.50;;;2.80;99.90;;;;;;5054808;28;20391;-66
2023/01/26 04:41:29;;;;;;;37.72;19.45;;;2.80;99.90;;;;;;5062674;28;20048;-62
2023/01/26 04:44:01;;;;;;;40.67;19.35;;;2.80;99.90;;;;;;5052491;28;20065;-63
2023/01/26 04:46:29;;;;;;;39.58;20.30;;;2.80;99.90;;;;;;5058813;28;20055;-64
2023/01/26 04:48:55;;;;;;;39.67;18.85;;;2.80;99.90;;;;;;5069164;28;20420;-65
2023/01/26 04:51:22;;;;;;;36.63;18.27;;;2.80;99.90;;;;;;5061268;28;20534;-63
2023/01/26 04:53:50;;;;;;;42.55;22.90;;;2.80;99.90;;;;;;5062322;28;20056;-63
2023/01/26 04:56:29;;;;;;;43.88;19.13;;;2.80;99.90;;;;;;5065037;28;20060;-65
2023/01/26 04:59:00;;;;;;;43.83;20.52;;;2.90;99.90;;;;;;5063136;28;20052;-64
2023/01/26 05:01:27;;;;;;;42.55;21.83;;;2.80;99.90;;;;;;5067576;28;20045;-65
2023/01/26 05:03:58;;;;;;;39.55;19.25;;;2.80;99.90;;;;;;5068215;28;20055;-64
2023/01/26 05:06:27;;;;;;;41.85;20.00;;;2.90;99.90;;;;;;5078175;28;20059;-63
2023/01/26 05:08:54;;;;;;;33.83;17.77;;;2.80;99.90;;;;;;5066120;28;20098;-67
2023/01/26 05:11:22;;;;;;;34.15;18.73;;;2.90;99.90;;;;;;5066476;28;20071;-63
2023/01/26 05:14:03;;;;;;;37.75;17.85;;;2.90;99.90;;;;;;5063941;28;20060;-65
2023/01/26 05:16:56;;;;;;;35.22;17.95;;;2.90;99.90;;;;;;5059717;28;20068;-63
2023/01/26 05:19:43;;;;;;;43.03;20.48;;;2.90;99.90;;;;;;5066543;28;20048;-66
2023/01/26 05:22:33;;;;;;;38.80;20.58;;;2.90;99.90;;;;;;5062425;28;20620;-64
2023/01/26 05:25:32;;;;;;;35.83;17.98;;;2.90;99.90;;;;;;5063363;28;20052;-64
2023/01/26 05:28:10;;;;;;;38.00;18.80;;;2.90;99.90;;;;;;5064057;28;20135;-65
2023/01/26 05:30:37;;;;;;;34.50;17.23;;;2.90;99.90;;;;;;5060462;28;20144;-65
2023/01/26 05:33:05;;;;;;;36.78;19.35;;;2.90;99.90;;;;;;5058446;28;20041;-66
2023/01/26 05:35:33;;;;;;;33.55;17.67;;;2.90;99.90;;;;;;5064274;28;20045;-66
2023/01/26 05:38:01;;;;;;;36.95;20.33;;;2.90;99.90;;;;;;5063812;28;20053;-66
2023/01/26 05:40:30;;;;;;;32.70;18.88;;;2.90;99.90;;;;;;5060497;28;20055;-64
2023/01/26 05:42:58;;;;;;;37.50;19.45;;;2.90;99.90;;;;;;5065038;28;20052;-65
2023/01/26 05:45:47;;;;;;;39.38;18.45;;;2.90;99.90;;;;;;5066692;28;20435;-64
2023/01/26 05:48:15;;;;;;;37.72;20.67;;;2.90;99.90;;;;;;5064748;28;20052;-66
2023/01/26 05:50:44;;;;;;;32.88;16.92;;;2.90;99.90;;;;;;5063803;28;20056;-66
2023/01/26 05:53:18;;;;;;;36.05;17.75;;;2.90;99.90;;;;;;5065674;28;20040;-63
2023/01/26 05:55:46;;;;;;;43.17;19.95;;;3.00;99.90;;;;;;5062481;28;20219;-70
2023/01/26 05:58:12;;;;;;;36.03;17.70;;;3.00;99.90;;;;;;5064558;28;20052;-65
2023/01/26 06:00:39;;;;;;;37.05;18.58;;;3.00;99.90;;;;;;5054754;28;20063;-63
2023/01/26 06:03:13;;;;;;;32.90;18.15;;;3.00;99.90;;;;;;5058364;28;20055;-64
2023/01/26 06:05:41;;;;;;;44.45;17.30;;;3.00;99.90;;;;;;5063833;28;20053;-66
2023/01/26 06:08:15;;;;;;;36.03;17.05;;;3.00;99.90;;;;;;5062692;28;20533;-65
2023/01/26 06:11:05;;;;;;;33.63;17.17;;;3.00;99.90;;;;;;5061442;28;20474;-64
2023/01/26 06:13:58;;;;;;;34.22;17.27;;;3.00;99.90;;;;;;5047815;28;20162;-64
2023/01/26 06:16:27;;;;;;;39.92;17.95;;;3.00;99.90;;;;;;5055603;28;20048;-64
2023/01/26 06:18:54;;;;;;;33.40;17.17;;;3.10;99.90;;;;;;5062421;28;20067;-67
2023/01/26 06:21:21;;;;;;;30.58;17.83;;;3.10;99.90;;;;;;5066403;28;20103;-67
2023/01/26 06:23:48;;;;;;;35.65;19.30;;;3.10;99.90;;;;;;5063109;28;20053;-65
2023/01/26 06:26:16;;;;;;;42.42;18.33;;;3.10;99.90;;;;;;5065115;28;20064;-64
2023/01/26 06:28:43;;;;;;;37.17;18.88;;;3.10;99.90;;;;;;5061014;28;20044;-63
2023/01/26 06:31:10;;;;;;;31.67;16.42;;;3.00;99.90;;;;;;5065042;28;20075;-64
2023/01/26 06:33:38;;;;;;;34.95;16.73;;;3.10;99.90;;;;;;5072377;28;20533;-64
2023/01/26 06:36:10;;;;;;;32.53;16.05;;;3.10;99.90;;;;;;5060542;28;20067;-63
2023/01/26 06:38:43;;;;;;;;;;;3.10;99.90;;;;;;5045232;28;20076;-64
2023/01/26 06:41:10;;;;;;;33.17;16.60;;;3.10;99.90;;;;;;5066408;28;19920;-65
2023/01/26 06:43:37;;;;;;;34.90;16.65;;;3.10;99.90;;;;;;5064074;28;20139;-67
2023/01/26 06:46:05;;;;;;;34.05;16.38;;;3.10;99.90;;;;;;5065717;28;20506;-64
2023/01/26 06:48:34;;;;;;;30.23;15.80;;;3.10;99.90;;;;;;5061793;28;20044;-65
2023/01/26 06:51:46;;;;;;;31.70;16.85;;;3.10;99.90;;;;;;5064719;28;20037;-64
2023/01/26 06:54:14;;;;;;;32.85;17.70;;;3.10;99.90;;;;;;5063621;28;20059;-64
2023/01/26 06:56:59;;;;;;;31.17;15.77;;;3.10;99.90;;;;;;5062605;28;20056;-64
2023/01/26 06:59:38;;;;;;;35.13;16.60;;;3.10;99.90;;;;;;5061824;28;20425;-63
2023/01/26 07:02:34;;;;;;;34.70;17.52;;;3.10;99.90;;;;;;5048452;28;20049;-63
2023/01/26 07:05:01;;;;;;;38.67;17.10;;;3.10;99.90;;;;;;5064879;28;20091;-65
2023/01/26 07:07:28;;;;;;;38.90;16.70;;;3.20;99.90;;;;;;5060166;28;20037;-64
2023/01/26 07:09:55;;;;;;;28.35;16.33;;;3.20;99.90;;;;;;5066335;28;20091;-65
2023/01/26 07:12:21;;;;;;;30.55;16.48;;;3.10;99.90;;;;;;5059288;28;20080;-64
2023/01/26 07:14:50;;;;;;;31.80;15.95;;;3.20;99.90;;;;;;5063793;28;20151;-65
2023/01/26 07:17:17;;;;;;;33.38;15.77;;;3.20;99.90;;;;;;5064721;28;20462;-65
2023/01/26 07:19:44;;;;;;;33.63;16.05;;;3.20;99.90;;;;;;5063352;28;20143;-64
2023/01/26 07:22:13;;;;;;;37.72;19.15;;;3.20;99.90;;;;;;5064048;28;20473;-65
2023/01/26 07:24:40;;;;;;;37.67;19.02;;;3.20;99.90;;;;;;5064498;28;20056;-64
2023/01/26 07:27:06;;;;;;;36.17;20.67;;;3.20;99.90;;;;;;5061060;28;20358;-65
2023/01/26 07:29:33;;;;;;;36.17;19.90;;;3.20;99.90;;;;;;5066260;28;20055;-64
2023/01/26 07:32:00;;;;;;;37.75;21.02;;;3.20;99.90;;;;;;5062209;28;20075;-65
2023/01/26 07:34:27;;;;;;;40.33;20.52;;;3.20;99.90;;;;;;5064630;28;20506;-64
2023/01/26 07:36:54;;;;;;;31.73;18.50;;;3.20;99.90;;;;;;5061470;28;20040;-64
2023/01/26 07:39:21;;;;;;;32.85;17.70;;;3.20;99.90;;;;;;5064484;28;20123;-63
2023/01/26 07:41:48;;;;;;;29.50;16.40;;;3.30;99.90;;;;;;5065307;28;20461;-64
2023/01/26 07:44:31;;;;;;;32.30;14.93;;;3.20;99.90;;;;;;5071295;28;20056;-64
2023/01/26 07:46:58;;;;;;;39.67;17.33;;;3.30;99.90;;;;;;5062431;28;20041;-63
2023/01/26 07:49:25;;;;;;;39.10;17.98;;;3.30;99.90;;;;;;5065663;28;20143;-65
2023/01/26 07:51:52;;;;;;;32.85;17.33;;;3.30;99.90;;;;;;5060639;28;20056;-64
2023/01/26 07:54:22;;;;;;;30.75;15.23;;;3.30;99.90;;;;;;5063952;28;20139;-66
2023/01/26 07:56:53;;;;;;;34.45;16.08;;;3.40;99.90;;;;;;5059798;28;20117;-65
2023/01/26 07:59:21;;;;;;;35.45;16.15;;;3.40;99.90;;;;;;5065388;28;20577;-68
2023/01/26 08:01:49;;;;;;;28.73;13.20;;;3.30;99.90;;;;;;5066055;28;20048;-64
2023/01/26 08:04:16;;;;;;;28.50;13.93;;;3.40;99.90;;;;;;5064737;28;20068;-67
2023/01/26 08:06:43;;;;;;;34.92;14.00;;;3.40;99.90;;;;;;5064161;28;20177;-63
2023/01/26 08:09:10;;;;;;;30.48;15.23;;;3.40;99.90;;;;;;5063375;28;20052;-64
2023/01/26 08:11:37;;;;;;;23.05;12.00;;;3.40;99.90;;;;;;5064915;28;20057;-66
2023/01/26 08:14:04;;;;;;;21.33;11.32;;;3.40;99.90;;;;;;5064310;28;20132;-65
2023/01/26 08:16:31;;;;;;;25.08;10.80;;;3.40;99.90;;;;;;5064100;28;20090;-65
2023/01/26 08:18:58;;;;;;;24.15;12.88;;;3.40;99.90;;;;;;5063491;28;20048;-66
2023/01/26 08:21:25;;;;;;;21.27;15.95;;;3.40;99.90;;;;;;5067255;28;20413;-65
2023/01/26 08:23:52;;;;;;;21.88;11.23;;;3.50;99.90;;;;;;5068002;28;20154;-63
2023/01/26 08:26:19;;;;;;;19.45;11.20;;;3.50;99.90;;;;;;5069545;28;20441;-64
2023/01/26 08:28:46;;;;;;;21.17;10.80;;;3.50;99.90;;;;;;5064255;28;20438;-65
2023/01/26 08:31:19;;;;;;;20.13;9.05;;;3.50;99.90;;;;;;5069330;28;20466;-61
2023/01/26 08:33:49;;;;;;;19.48;10.13;;;3.50;99.90;;;;;;5063830;28;20403;-62
2023/01/26 08:36:17;;;;;;;16.88;9.10;;;3.50;99.90;;;;;;5069122;28;20052;-64
2023/01/26 08:38:48;;;;;;;21.60;11.93;;;3.50;99.90;;;;;;5063649;28;20055;-62
2023/01/26 08:41:15;;;;;;;16.70;11.00;;;3.50;99.90;;;;;;5067963;28;20087;-64
2023/01/26 08:43:42;;;;;;;18.60;9.13;;;3.60;99.90;;;;;;5063276;28;20128;-63
2023/01/26 08:46:09;;;;;;;19.38;9.82;;;3.60;99.90;;;;;;5068969;28;20482;-65
2023/01/26 08:48:36;;;;;;;15.93;8.15;;;3.60;99.90;;;;;;5064780;28;20416;-65
2023/01/26 08:51:05;;;;;;;18.50;10.32;;;3.60;99.90;;;;;;5068420;28;20135;-65
2023/01/26 08:53:34;;;;;;;12.30;7.85;;;3.60;99.90;;;;;;5067421;28;20048;-63
2023/01/26 08:56:02;;;;;;;14.85;10.00;;;3.60;99.90;;;;;;5068441;28;20533;-65
2023/01/26 08:58:30;;;;;;;10.82;6.57;;;3.60;99.90;;;;;;5064751;28;20048;-64
2023/01/26 09:00:57;;;;;;;14.10;8.88;;;3.70;99.90;;;;;;5067519;28;20048;-64
2023/01/26 09:03:24;;;;;;;13.85;7.32;;;3.70;99.90;;;;;;5068725;28;20083;-63
2023/01/26 09:05:51;;;;;;;15.20;9.60;;;3.70;99.90;;;;;;5067233;28;20145;-63
2023/01/26 09:08:17;;;;;;;16.80;8.35;;;3.70;99.90;;;;;;5066341;28;20045;-64
2023/01/26 09:10:44;;;;;;;11.45;8.30;;;3.70;99.90;;;;;;5064809;28;20052;-62
2023/01/26 09:13:11;;;;;;;9.70;6.75;;;3.70;99.90;;;;;;5067275;28;20483;-64
2023/01/26 09:15:38;;;;;;;9.23;7.80;;;3.70;99.90;;;;;;5068269;28;20041;-64
2023/01/26 09:18:05;;;;;;;12.95;7.68;;;3.70;99.90;;;;;;5063235;28;20049;-63
2023/01/26 09:20:32;;;;;;;12.93;7.43;;;3.70;99.90;;;;;;5064044;28;20048;-63
2023/01/26 09:22:59;;;;;;;13.13;7.43;;;3.80;99.90;;;;;;5061914;28;20457;-64
2023/01/26 09:25:25;;;;;;;9.02;7.05;;;3.80;99.90;;;;;;5065654;28;20076;-64
2023/01/26 09:27:52;;;;;;;12.32;6.72;;;3.80;99.90;;;;;;5063341;28;20045;-63
2023/01/26 09:30:19;;;;;;;12.30;7.75;;;3.80;99.90;;;;;;5067320;28;20044;-64
2023/01/26 09:32:46;;;;;;;13.82;6.28;;;3.80;99.90;;;;;;5064852;28;20044;-65
2023/01/26 09:35:13;;;;;;;11.88;6.38;;;3.80;99.90;;;;;;5068214;28;20048;-62
2023/01/26 09:37:44;;;;;;;9.82;5.57;;;3.80;99.90;;;;;;5066023;28;20135;-64
2023/01/26 09:40:20;;;;;;;10.45;5.75;;;3.80;99.90;;;;;;5067373;28;20098;-64
2023/01/26 09:43:13;;;;;;;9.73;5.95;;;3.90;99.90;;;;;;5065307;28;20040;-65
2023/01/26 09:46:04;;;;;;;10.32;5.80;;;3.90;99.90;;;;;;5065343;28;20049;-62
2023/01/26 09:48:31;;;;;;;30.95;6.35;;;3.90;99.90;;;;;;5064141;28;20383;-62
2023/01/26 09:51:05;;;;;;;15.73;6.10;;;3.90;99.90;;;;;;5065212;28;20525;-64
2023/01/26 09:53:53;;;;;;;43.03;7.85;;;3.90;99.90;;;;;;5067169;28;20114;-63
2023/01/26 09:56:24;;;;;;;13.40;4.55;;;4.00;99.90;;;;;;5065314;28;20494;-63
2023/01/26 09:58:57;;;;;;;25.75;5.63;;;4.00;99.90;;;;;;5062797;28;20049;-62
2023/01/26 10:01:34;;;;;;;96.53;13.35;;;4.00;99.90;;;;;;5067522;28;20040;-64
2023/01/26 10:04:31;;;;;;;29.05;5.97;;;4.00;99.90;;;;;;5064349;28;20136;-64
2023/01/26 10:07:00;;;;;;;95.55;10.00;;;4.10;99.90;;;;;;5062743;28;20140;-64
2023/01/26 10:09:50;;;;;;;37.00;6.93;;;4.10;99.90;;;;;;5064172;28;20048;-64
2023/01/26 10:12:29;;;;;;;89.47;12.57;;;4.10;99.90;;;;;;5067214;28;20425;-63
2023/01/26 10:15:09;;;;;;;37.05;10.07;;;4.10;99.90;;;;;;5062137;28;20043;-64
2023/01/26 10:17:41;;;;;;;;;;;4.10;99.90;;;;;;5067680;28;20257;-63
2023/01/26 10:20:31;;;;;;;78.85;9.07;;;4.10;99.90;;;;;;5063712;28;20610;-63
2023/01/26 10:23:04;;;;;;;81.45;10.75;;;4.10;99.90;;;;;;5062703;28;20131;-62
2023/01/26 10:25:37;;;;;;;131.00;15.38;;;4.10;99.90;;;;;;5066491;28;20082;-63
2023/01/26 10:28:14;;;;;;;48.35;7.13;;;4.10;99.90;;;;;;5066252;28;20075;-63
2023/01/26 10:30:43;;;;;;;109.80;13.20;;;4.20;99.90;;;;;;5063422;28;20139;-63
2023/01/26 10:33:26;;;;;;;53.50;7.10;;;4.20;99.90;;;;;;5066275;28;20040;-63
2023/01/26 10:35:53;;;;;;;60.22;8.05;;;4.20;99.90;;;;;;5067187;28;20045;-63
2023/01/26 10:38:32;;;;;;;15.35;6.65;;;4.20;99.90;;;;;;5066266;28;20461;-65
2023/01/26 10:41:02;;;;;;;18.63;5.72;;;4.20;99.90;;;;;;5063049;28;20216;-65
2023/01/26 10:43:36;;;;;;;24.33;6.78;;;4.20;99.90;;;;;;5063935;28;20416;-64
2023/01/26 10:46:03;;;;;;;41.08;10.07;;;4.20;99.90;;;;;;5064410;28;20045;-63
2023/01/26 10:48:30;;;;;;;28.85;6.03;;;4.30;99.90;;;;;;5061266;28;20072;-63
2023/01/26 10:51:14;;;;;;;19.58;5.68;;;4.30;99.90;;;;;;5065736;28;20456;-62
2023/01/26 10:53:41;;;;;;;27.52;6.85;;;4.30;99.90;;;;;;5063623;28;20051;-63
2023/01/26 10:56:15;;;;;;;28.15;7.18;;;4.30;99.90;;;;;;5064781;28;20173;-62
2023/01/26 10:58:54;;;;;;;21.58;6.97;;;4.30;99.90;;;;;;5058086;28;20059;-65
2023/01/26 11:01:26;;;;;;;41.20;7.97;;;4.20;99.90;;;;;;5062790;28;20056;-63
2023/01/26 11:04:19;;;;;;;48.35;6.47;;;4.30;99.90;;;;;;5061673;28;20044;-63
2023/01/26 11:06:46;;;;;;;25.77;5.25;;;4.30;99.90;;;;;;5061337;28;20060;-63
2023/01/26 11:09:13;;;;;;;91.35;10.13;;;4.30;99.90;;;;;;5063505;28;20036;-63
2023/01/26 11:11:41;;;;;;;33.70;6.80;;;4.30;99.90;;;;;;5066670;28;20052;-63
2023/01/26 11:14:17;;;;;;;30.17;6.55;;;4.30;99.90;;;;;;5062522;28;20044;-63
2023/01/26 11:17:20;;;;;;;38.72;9.27;;;4.30;99.90;;;;;;5064424;28;20094;-65
2023/01/26 11:19:56;;;;;;;12.90;6.70;;;4.30;99.90;;;;;;5064851;28;20048;-63
2023/01/26 11:22:29;;;;;;;17.70;7.05;;;4.30;99.90;;;;;;5063623;28;20045;-65
2023/01/26 11:25:11;;;;;;;13.57;7.22;;;4.30;99.90;;;;;;5061281;28;20044;-64
2023/01/26 11:27:53;;;;;;;12.20;7.00;;;4.30;99.90;;;;;;5063260;28;20728;-64
2023/01/26 11:30:39;;;;;;;17.95;7.82;;;4.30;99.90;;;;;;5059930;28;20058;-65
2023/01/26 11:33:17;;;;;;;12.75;6.57;;;4.30;99.90;;;;;;5059005;28;20105;-65
2023/01/26 11:36:19;;;;;;;12.20;6.47;;;4.30;99.90;;;;;;5067187;28;20074;-64
2023/01/26 11:39:13;;;;;;;11.23;6.63;;;4.40;99.90;;;;;;5042112;28;20276;-64
2023/01/26 11:42:05;;;;;;;16.85;7.10;;;4.30;99.90;;;;;;5061748;28;20563;-66
2023/01/26 11:45:03;;;;;;;13.82;6.75;;;4.40;99.90;;;;;;5059417;28;20079;-63
2023/01/26 11:47:36;;;;;;;10.48;5.07;;;4.40;99.90;;;;;;5065837;28;20464;-64
2023/01/26 11:50:23;;;;;;;12.15;5.47;;;4.40;99.90;;;;;;5062721;28;20071;-68
2023/01/26 11:53:41;;;;;;;10.95;5.78;;;4.40;99.90;;;;;;5060469;28;20119;-67
2023/01/26 11:56:36;;;;;;;5.75;4.28;;;4.40;99.90;;;;;;5018919;28;20045;-64
2023/01/26 11:59:27;;;;;;;13.45;3.97;;;4.40;99.90;;;;;;5020111;28;20115;-63
2023/01/26 12:02:16;;;;;;;9.48;4.10;;;4.40;99.90;;;;;;5057791;28;20413;-63
2023/01/26 12:04:45;;;;;;;6.63;4.18;;;4.40;99.90;;;;;;5061177;28;20048;-65
2023/01/26 12:07:22;;;;;;;6.63;5.05;;;4.40;99.90;;;;;;5065599;28;20495;-64
2023/01/26 12:09:51;;;;;;;7.95;3.88;;;4.40;99.90;;;;;;5064987;28;20044;-64
2023/01/26 12:12:26;;;;;;;6.32;3.78;;;4.40;99.90;;;;;;5064532;28;20053;-66
2023/01/26 12:15:00;;;;;;;4.32;3.67;;;4.40;99.90;;;;;;5063621;28;20515;-63
2023/01/26 12:17:52;;;;;;;7.20;3.63;;;4.50;99.90;;;;;;5063497;28;20060;-66
2023/01/26 12:20:27;;;;;;;4.43;3.22;;;4.50;99.90;;;;;;5060808;28;20056;-64
2023/01/26 12:23:12;;;;;;;6.28;3.70;;;4.50;99.90;;;;;;5062696;28;20132;-64
2023/01/26 12:25:49;;;;;;;5.13;2.85;;;4.50;99.90;;;;;;5060105;28;20048;-64
2023/01/26 12:28:31;;;;;;;4.47;3.50;;;4.50;99.90;;;;;;5065609;28;20055;-63
2023/01/26 12:31:22;;;;;;;4.75;3.38;;;4.50;99.90;;;;;;5061691;28;20336;-64
2023/01/26 12:33:54;;;;;;;5.68;3.40;;;4.50;99.90;;;;;;5064594;28;20413;-64
2023/01/26 12:36:55;;;;;;;6.88;3.33;;;4.50;99.90;;;;;;5064993;28;20476;-63
2023/01/26 12:39:33;;;;;;;7.82;2.67;;;4.50;99.90;;;;;;5060931;28;20066;-65
2023/01/26 12:42:24;;;;;;;6.68;2.58;;;4.50;99.90;;;;;;5064619;28;20499;-64
2023/01/26 12:45:00;;;;;;;3.55;1.73;;;4.50;99.90;;;;;;5060052;28;20490;-64
2023/01/26 12:47:30;;;;;;;2.40;1.33;;;4.50;99.90;;;;;;5062658;28;20106;-67
2023/01/26 12:50:12;;;;;;;7.53;1.77;;;4.50;99.90;;;;;;5062600;28;20433;-68
2023/01/26 12:52:50;;;;;;;4.10;1.45;;;4.50;99.90;;;;;;5060999;28;20530;-67
2023/01/26 12:55:19;;;;;;;5.07;1.60;;;4.40;99.90;;;;;;5063623;28;20036;-64
2023/01/26 12:58:00;;;;;;;2.33;1.40;;;4.40;99.90;;;;;;5060793;28;20063;-64
2023/01/26 13:00:33;;;;;;;3.38;2.10;;;4.40;99.90;;;;;;5057733;28;20127;-64
2023/01/26 13:03:12;;;;;;;3.88;1.50;;;4.40;99.90;;;;;;5062010;28;20144;-64
2023/01/26 13:05:55;;;;;;;3.45;1.63;;;4.40;99.90;;;;;;5063253;28;20064;-63
2023/01/26 13:08:31;;;;;;;1.23;1.05;;;4.40;99.90;;;;;;5068264;28;20087;-67
2023/01/26 13:11:00;;;;;;;1.52;0.98;;;4.30;99.90;;;;;;5060158;28;20048;-66
2023/01/26 13:13:33;;;;;;;1.95;0.82;;;4.30;99.90;;;;;;5067411;28;20401;-66
2023/01/26 13:16:29;;;;;;;1.63;1.52;;;4.30;99.90;;;;;;5064663;28;20056;-64
2023/01/26 13:18:58;;;;;;;4.18;1.13;;;4.30;99.90;;;;;;5064683;28;20149;-63
2023/01/26 13:21:25;;;;;;;7.28;0.98;;;4.20;99.90;;;;;;5068315;28;20041;-64
2023/01/26 13:23:53;;;;;;;2.42;0.98;;;4.30;99.90;;;;;;5066156;28;20052;-63
2023/01/26 13:26:24;;;;;;;1.73;0.98;;;4.20;99.90;;;;;;5064319;28;20593;-65
2023/01/26 13:29:11;;;;;;;2.03;0.95;;;4.20;99.90;;;;;;5063590;28;20079;-64
2023/01/26 13:31:38;;;;;;;4.57;0.90;;;4.20;99.90;;;;;;5055079;28;20473;-64
2023/01/26 13:34:07;;;;;;;2.65;0.80;;;4.20;99.90;;;;;;5067020;28;20075;-66
2023/01/26 13:36:37;;;;;;;3.50;1.10;;;4.10;99.90;;;;;;5065141;28;20449;-65
2023/01/26 13:39:26;;;;;;;3.17;1.20;;;4.10;99.90;;;;;;5063402;28;20048;-65
2023/01/26 13:41:53;;;;;;;1.33;1.13;;;4.10;99.90;;;;;;5066053;28;20076;-64
2023/01/26 13:44:36;;;;;;;1.95;1.08;;;4.00;99.90;;;;;;5066801;28;20049;-67
2023/01/26 13:47:11;;;;;;;4.18;0.52;;;4.00;99.90;;;;;;5065530;28;20547;-63
2023/01/26 13:49:42;;;;;;;0.75;0.43;;;3.90;99.90;;;;;;5067429;28;20128;-64
2023/01/26 13:52:17;;;;;;;1.95;1.02;;;3.90;99.90;;;;;;5062579;28;20050;-64
2023/01/26 13:54:45;;;;;;;7.00;1.05;;;3.80;99.90;;;;;;5064549;28;20607;-63
2023/01/26 13:57:23;;;;;;;2.03;0.40;;;3.80;99.90;;;;;;5067469;28;20599;-65
2023/01/26 13:59:55;;;;;;;7.10;0.93;;;3.80;99.90;;;;;;5067047;28;20540;-65